Cranbrook Airport
CYXC : now visible

Airfield :











YOU CAN JOIN US ON...

 
LOGIN :

Register | Disclaimer

   EN    FR    IT 

 









Legend :    VFR   Marginal VFR   IFR   Intensive IFR   Very Intensive IFR
Visi :
Ceiling :
>= 8 km
>= 3000ft
5 to 8 km
1000 to 3000 ft
1500m to 5 km
500 to 1000 ft
800 to 1500m
200 to 500 ft
< 800m
< 200 ft
Symbols :   Thunderstorms  Fog  Heavy snow  Heavy precipitations  Wind > 20 kt






- Airport Elevation : 3082 ft
- IATA code : YXC


CYXC - Cranbrook

CURRENT METAR :
  • 031400Z VRB09KT 25SM FEW140 SCT240 22/06 A2999 RMK AC1CI3 AC TR SLP128 DENSITY ALT 4600FT

EXPIRED METARs :
  • 031300Z 00000KT 25SM FEW130 SCT240 15/07 A2999 RMK AC1CI3 AC TR SLP134 DENSITY ALT 3700FT
  • 031200Z 14004KT 130V230 25SM FEW130 SCT240 16/07 A2997 RMK AC1CI2 SLP125 DENSITY ALT 3900FT
  • 031156Z 17003KT 150V280 25SM FEW130 SCT240 16/07 A2997 RMK AC1CI2 SLP125 DENSITY ALT 3900FT

TAF TAF CYXC
Valid from the 03 at 14:00 until the 04 at 02:00 UTC


031338Z 0314/0402 VRB03KT P6SM FEW120 BKN200
BECMG 0314/0316 18008KT
FM031700 18010KT P6SM BKN100
TEMPO 0317/0319 P6SM -SHRA VCTS BKN080CB
FM031900 22012KT P6SM BKN080
TEMPO 0319/0402 P6SM -SHRA
PROB30 0319/0402 VRB15G25KT 5SM TSRA BKN080CB RMK NXT FCST BY 031900Z
CZVR FIR / North America



MET'MAP, your aeronautical weather chart ! - Copyright ORBIFLY December 2007 - Disclaimer

ORBIFLY MET'MAP TEAM :

Programming & Development : Alexandra Zaïnal
Concept & original design : Baudouin d'Aumeries
Assistance for programming : Marc-Olivier Méhu
Technical & hardware support : Manuel Goepfert

Contact : metmap@orbifly.com




SOURCES & CREDITS :

   NOAA       Earth
Advisory